createdAt,value
2019-05-10T00:02:50.352Z,13.51
2019-05-10T00:08:13.224Z,13.53
2019-05-10T00:13:24.166Z,13.53
2019-05-10T00:18:29.211Z,13.42
2019-05-10T00:23:34.214Z,13.46
2019-05-10T00:28:39.229Z,13.52
2019-05-10T00:33:44.305Z,13.42
2019-05-10T00:38:49.350Z,13.50
2019-05-10T00:43:54.356Z,13.41
2019-05-10T00:48:59.399Z,13.43
2019-05-10T00:54:04.420Z,13.43
2019-05-10T00:59:09.402Z,13.47
2019-05-10T01:04:14.462Z,13.63
2019-05-10T01:09:19.503Z,13.63
2019-05-10T01:14:25.076Z,13.59
2019-05-10T01:19:31.162Z,13.55
2019-05-10T01:24:41.206Z,13.55
2019-05-10T01:29:46.236Z,13.53
2019-05-10T01:34:51.277Z,13.56
2019-05-10T01:39:56.320Z,13.50
2019-05-10T01:45:01.322Z,13.54
2019-05-10T01:50:06.832Z,13.43
2019-05-10T01:55:11.823Z,13.46
2019-05-10T02:00:17.783Z,13.40
2019-05-10T02:05:23.222Z,13.29
2019-05-10T02:10:28.275Z,13.24
2019-05-10T02:15:33.942Z,13.16
2019-05-10T02:20:38.967Z,13.16
2019-05-10T02:25:44.391Z,13.18
2019-05-10T02:30:49.385Z,13.11
2019-05-10T02:35:54.435Z,13.02
2019-05-10T02:40:59.756Z,13.06
2019-05-10T02:46:04.778Z,13.03
2019-05-10T02:51:10.221Z,13.01
2019-05-10T02:56:29.736Z,13.07
2019-05-10T03:01:24.069Z,13.05
2019-05-10T03:06:29.377Z,13.12
2019-05-10T03:11:48.922Z,13.09
2019-05-10T03:16:53.989Z,13.03
2019-05-10T03:22:08.222Z,12.97
2019-05-10T03:27:13.264Z,13.06
2019-05-10T03:32:18.281Z,13.05
2019-05-10T03:37:23.587Z,12.97
2019-05-10T03:42:28.607Z,12.93
2019-05-10T03:47:33.698Z,12.95
2019-05-10T03:52:38.711Z,12.92
2019-05-10T03:57:43.853Z,13.01
2019-05-10T04:02:48.859Z,12.89
2019-05-10T04:07:53.963Z,12.92
2019-05-10T04:12:58.997Z,12.93
2019-05-10T04:18:04.009Z,12.97
2019-05-10T04:23:09.026Z,12.95
2019-05-10T04:28:14.065Z,12.95
2019-05-10T04:33:19.488Z,12.89
2019-05-10T04:38:24.535Z,12.87
2019-05-10T04:43:29.950Z,12.84
2019-05-10T04:48:36.018Z,12.81
2019-05-10T04:53:41.034Z,12.88
2019-05-10T04:58:46.055Z,12.85
2019-05-10T05:03:51.085Z,12.87
2019-05-10T05:08:56.160Z,12.80
2019-05-10T05:14:01.679Z,12.79
2019-05-10T05:19:06.748Z,12.82
2019-05-10T05:24:17.108Z,12.88
2019-05-10T05:29:18.794Z,12.95
2019-05-10T05:34:23.936Z,12.92
2019-05-10T05:39:28.969Z,12.94
2019-05-10T05:44:34.073Z,12.99
2019-05-10T05:49:39.111Z,13.11
2019-05-10T05:54:44.163Z,13.16
2019-05-10T05:59:49.262Z,13.16
2019-05-10T06:04:54.320Z,13.22
2019-05-10T06:09:59.291Z,13.22
2019-05-10T06:15:04.497Z,13.22
2019-05-10T06:20:10.089Z,13.27
2019-05-10T06:25:15.228Z,13.33
2019-05-10T06:30:20.253Z,13.47
2019-05-10T06:35:25.319Z,13.48
2019-05-10T06:40:36.007Z,13.52
2019-05-10T06:45:38.860Z,13.63
2019-05-10T06:50:43.869Z,13.67
2019-05-10T06:55:49.025Z,13.78
2019-05-10T07:00:54.029Z,13.93
2019-05-10T07:05:59.463Z,14.09
2019-05-10T07:11:04.533Z,14.10
2019-05-10T07:16:14.447Z,14.23
2019-05-10T07:21:16.695Z,14.17
2019-05-10T07:26:24.120Z,14.15
2019-05-10T07:31:28.453Z,14.15
2019-05-10T07:36:33.513Z,14.13
2019-05-10T07:41:39.945Z,14.06
2019-05-10T07:46:49.722Z,14.25
2019-05-10T07:51:52.977Z,14.35
2019-05-10T07:56:58.021Z,14.25
2019-05-10T08:02:05.827Z,14.28
2019-05-10T08:07:11.017Z,14.54
2019-05-10T08:12:16.178Z,14.79
2019-05-10T08:17:21.229Z,15.05
2019-05-10T08:22:26.241Z,15.11
2019-05-10T08:27:32.437Z,15.27
2019-05-10T08:32:37.607Z,15.42
2019-05-10T08:37:43.452Z,15.39
2019-05-10T08:42:54.726Z,15.44
2019-05-10T08:48:01.028Z,15.22
2019-05-10T08:53:10.567Z,15.03
2019-05-10T08:58:09.059Z,14.96
2019-05-10T09:03:18.486Z,15.03
2019-05-10T09:08:24.786Z,15.09
2019-05-10T09:13:28.667Z,15.15
2019-05-10T09:18:38.247Z,15.23
2019-05-10T09:23:42.705Z,15.26
2019-05-10T09:28:52.734Z,15.04
2019-05-10T09:33:54.622Z,14.95
2019-05-10T09:38:59.665Z,14.76
2019-05-10T09:44:05.063Z,14.84
2019-05-10T09:49:17.809Z,14.84
2019-05-10T09:54:23.265Z,15.01
2019-05-10T09:59:27.672Z,15.21
2019-05-10T10:04:32.225Z,15.45
2019-05-10T10:09:44.467Z,15.61
2019-05-10T10:14:47.107Z,15.78
2019-05-10T10:19:51.657Z,15.72
2019-05-10T10:25:00.497Z,15.62
2019-05-10T10:30:06.558Z,15.56
2019-05-10T10:35:13.207Z,15.53
2019-05-10T10:40:18.306Z,16.06
2019-05-10T10:45:23.505Z,16.40
2019-05-10T10:50:28.674Z,15.94
2019-05-10T10:55:37.108Z,15.69
2019-05-10T11:00:41.088Z,15.71
2019-05-10T11:05:51.229Z,15.70
2019-05-10T11:10:57.024Z,15.89
2019-05-10T11:16:09.865Z,16.44
2019-05-10T11:21:11.188Z,16.62
2019-05-10T11:26:15.651Z,16.67
2019-05-10T11:31:21.374Z,17.13
2019-05-10T11:36:26.531Z,17.13
2019-05-10T11:41:31.672Z,16.84
2019-05-10T11:46:36.739Z,17.00
2019-05-10T11:51:41.797Z,17.05
2019-05-10T11:56:46.905Z,16.95
2019-05-10T12:01:57.984Z,17.25
2019-05-10T12:06:58.683Z,17.47
2019-05-10T12:12:03.765Z,17.94
2019-05-10T12:17:13.820Z,17.84
2019-05-10T12:22:16.131Z,17.63
2019-05-10T12:27:27.002Z,17.78
2019-05-10T12:32:33.553Z,17.98
2019-05-10T12:37:39.669Z,18.83
2019-05-10T12:42:46.834Z,18.75
2019-05-10T12:47:51.764Z,18.08
2019-05-10T12:53:13.767Z,17.67
2019-05-10T12:58:05.044Z,17.41
2019-05-10T13:03:12.849Z,17.06
2019-05-10T13:08:17.170Z,16.64
2019-05-10T13:13:31.383Z,16.23
2019-05-10T13:18:50.828Z,15.86
2019-05-10T13:23:43.163Z,15.26
2019-05-10T13:28:48.225Z,15.04
2019-05-10T13:33:53.234Z,15.05
2019-05-10T13:38:58.328Z,15.17
2019-05-10T13:44:06.469Z,15.35
2019-05-10T13:49:13.506Z,15.45
2019-05-10T13:54:18.897Z,15.59
2019-05-10T13:59:24.016Z,16.30
2019-05-10T14:04:33.985Z,17.33
2019-05-10T14:09:35.920Z,17.07
2019-05-10T14:14:41.071Z,16.57
2019-05-10T14:19:46.108Z,16.11
2019-05-10T14:24:53.258Z,15.99
2019-05-10T14:29:57.939Z,15.91
2019-05-10T14:35:02.961Z,15.81
2019-05-10T14:40:08.198Z,15.88
2019-05-10T14:45:13.402Z,15.84
2019-05-10T14:50:25.228Z,15.86
2019-05-10T14:55:28.021Z,16.01
2019-05-10T15:00:32.854Z,16.92
2019-05-10T15:05:38.478Z,17.31
2019-05-10T15:10:43.592Z,17.53
2019-05-10T15:15:48.695Z,17.58
2019-05-10T15:20:53.788Z,17.55
2019-05-10T15:26:10.438Z,17.45
2019-05-10T15:31:06.415Z,17.30
2019-05-10T15:36:11.753Z,17.12
2019-05-10T15:41:21.775Z,16.93
2019-05-10T15:46:35.453Z,16.90
2019-05-10T15:51:36.145Z,16.90
2019-05-10T15:56:41.367Z,16.84
2019-05-10T16:01:45.755Z,16.83
2019-05-10T16:06:50.939Z,16.90
2019-05-10T16:12:01.689Z,16.97
2019-05-10T16:17:02.843Z,17.00
2019-05-10T16:22:07.979Z,16.98
2019-05-10T16:27:12.987Z,17.02
2019-05-10T16:32:18.024Z,17.03
2019-05-10T16:37:23.051Z,16.97
2019-05-10T16:42:34.478Z,16.85
2019-05-10T16:47:34.914Z,16.92
2019-05-10T16:52:40.037Z,16.86
2019-05-10T16:57:45.277Z,16.93
2019-05-10T17:02:50.284Z,16.70
2019-05-10T17:07:58.777Z,16.72
2019-05-10T17:13:04.812Z,16.45
2019-05-10T17:18:10.547Z,16.37
2019-05-10T17:23:15.703Z,16.29
2019-05-10T17:28:20.815Z,16.16
2019-05-10T17:33:26.917Z,16.07
2019-05-10T17:38:32.313Z,15.99
2019-05-10T17:43:37.401Z,16.00
2019-05-10T17:48:47.279Z,15.92
2019-05-10T17:53:54.817Z,15.76
2019-05-10T17:58:56.180Z,15.74
2019-05-10T18:04:01.258Z,15.56
2019-05-10T18:09:07.299Z,15.41
2019-05-10T18:14:17.753Z,15.33
2019-05-10T18:19:24.703Z,15.26
2019-05-10T18:24:35.656Z,15.18
2019-05-10T18:29:36.899Z,15.13
2019-05-10T18:34:41.987Z,15.13
2019-05-10T18:39:52.289Z,15.15
2019-05-10T18:44:54.189Z,15.17
2019-05-10T18:49:59.452Z,15.16
2019-05-10T18:55:04.987Z,15.16
2019-05-10T19:00:10.432Z,15.19
2019-05-10T19:05:24.995Z,15.16
2019-05-10T19:10:27.410Z,15.22
2019-05-10T19:15:32.491Z,15.18
2019-05-10T19:20:37.593Z,15.08
2019-05-10T19:25:45.502Z,15.08
2019-05-10T19:30:52.672Z,15.00
2019-05-10T19:35:56.582Z,14.93
2019-05-10T19:41:01.714Z,14.78
2019-05-10T19:46:07.062Z,14.78
2019-05-10T19:51:12.507Z,14.67
2019-05-10T19:56:17.581Z,14.58
2019-05-10T20:01:22.733Z,14.62
2019-05-10T20:06:28.828Z,14.57
2019-05-10T20:11:33.940Z,14.51
2019-05-10T20:16:52.218Z,14.54
2019-05-10T20:21:46.609Z,14.50
2019-05-10T20:26:51.713Z,14.39
2019-05-10T20:31:56.737Z,14.32
2019-05-10T20:37:02.325Z,14.30
2019-05-10T20:42:10.521Z,14.24
2019-05-10T20:47:16.038Z,14.19
2019-05-10T20:52:21.503Z,14.12
2019-05-10T20:57:26.660Z,14.04
2019-05-10T21:02:32.276Z,14.00
2019-05-10T21:07:37.380Z,14.10
2019-05-10T21:12:42.462Z,14.12
2019-05-10T21:17:47.544Z,14.08
2019-05-10T21:22:52.634Z,14.10
2019-05-10T21:27:57.939Z,14.06
2019-05-10T21:33:03.118Z,14.08
2019-05-10T21:38:08.313Z,14.06
2019-05-10T21:43:13.479Z,14.12
2019-05-10T21:48:22.456Z,13.98
2019-05-10T21:53:32.355Z,13.97
2019-05-10T21:58:41.921Z,13.83
2019-05-10T22:03:54.812Z,13.75
2019-05-10T22:09:03.530Z,13.71
2019-05-10T22:14:11.917Z,13.37
2019-05-10T22:19:19.272Z,13.15
2019-05-10T22:24:26.679Z,13.32
2019-05-10T22:29:32.129Z,13.40
2019-05-10T22:34:37.185Z,13.35
2019-05-10T22:39:42.546Z,13.28
2019-05-10T22:44:50.112Z,12.88
2019-05-10T22:49:55.223Z,12.85
2019-05-10T22:55:00.885Z,12.92
2019-05-10T23:00:07.549Z,12.83
2019-05-10T23:05:14.316Z,12.84
2019-05-10T23:10:19.456Z,12.89
2019-05-10T23:15:24.590Z,12.86
2019-05-10T23:20:29.623Z,12.82
2019-05-10T23:25:34.704Z,12.92
2019-05-10T23:30:39.755Z,12.91
2019-05-10T23:35:44.798Z,12.91
2019-05-10T23:40:49.859Z,12.98
2019-05-10T23:45:55.683Z,12.87
2019-05-10T23:51:00.717Z,12.76
2019-05-10T23:56:06.136Z,12.91
